sensor_id;sensor_type;location;lat;lon;timestamp;P1;durP1;ratioP1;P2;durP2;ratioP2
23539;SDS011;11947;50.810;4.394;2022-07-06T00:01:22;5.68;;;2.80;;
23539;SDS011;11947;50.810;4.394;2022-07-06T00:04:12;5.13;;;2.90;;
23539;SDS011;11947;50.810;4.394;2022-07-06T00:06:41;10.68;;;3.15;;
23539;SDS011;11947;50.810;4.394;2022-07-06T00:09:07;8.82;;;3.00;;
23539;SDS011;11947;50.810;4.394;2022-07-06T00:11:39;5.80;;;2.97;;
23539;SDS011;11947;50.810;4.394;2022-07-06T00:14:17;6.90;;;3.13;;
23539;SDS011;11947;50.810;4.394;2022-07-06T00:16:48;5.90;;;2.92;;
23539;SDS011;11947;50.810;4.394;2022-07-06T00:19:19;10.32;;;3.17;;
23539;SDS011;11947;50.810;4.394;2022-07-06T00:21:57;7.55;;;3.30;;
23539;SDS011;11947;50.810;4.394;2022-07-06T00:24:32;6.85;;;2.97;;
23539;SDS011;11947;50.810;4.394;2022-07-06T00:26:58;10.32;;;3.40;;
23539;SDS011;11947;50.810;4.394;2022-07-06T00:29:29;7.50;;;2.97;;
23539;SDS011;11947;50.810;4.394;2022-07-06T00:32:08;5.05;;;2.75;;
23539;SDS011;11947;50.810;4.394;2022-07-06T00:34:39;7.45;;;3.17;;
23539;SDS011;11947;50.810;4.394;2022-07-06T00:37:27;7.65;;;3.25;;
23539;SDS011;11947;50.810;4.394;2022-07-06T00:39:58;8.15;;;3.47;;
23539;SDS011;11947;50.810;4.394;2022-07-06T00:42:45;6.15;;;2.92;;
23539;SDS011;11947;50.810;4.394;2022-07-06T00:45:32;6.55;;;3.20;;
23539;SDS011;11947;50.810;4.394;2022-07-06T00:47:58;8.43;;;3.20;;
23539;SDS011;11947;50.810;4.394;2022-07-06T00:50:33;6.80;;;3.05;;
23539;SDS011;11947;50.810;4.394;2022-07-06T00:53:00;10.00;;;3.10;;
23539;SDS011;11947;50.810;4.394;2022-07-06T00:55:32;8.35;;;3.45;;
23539;SDS011;11947;50.810;4.394;2022-07-06T00:58:00;7.70;;;3.88;;
23539;SDS011;11947;50.810;4.394;2022-07-06T01:00:27;8.00;;;3.30;;
23539;SDS011;11947;50.810;4.394;2022-07-06T01:02:53;5.50;;;3.53;;
23539;SDS011;11947;50.810;4.394;2022-07-06T01:05:20;7.53;;;3.10;;
23539;SDS011;11947;50.810;4.394;2022-07-06T01:07:47;6.05;;;3.20;;
23539;SDS011;11947;50.810;4.394;2022-07-06T01:10:14;5.38;;;2.97;;
23539;SDS011;11947;50.810;4.394;2022-07-06T01:12:42;8.60;;;3.53;;
23539;SDS011;11947;50.810;4.394;2022-07-06T01:15:10;7.60;;;3.10;;
23539;SDS011;11947;50.810;4.394;2022-07-06T01:17:41;8.40;;;4.20;;
23539;SDS011;11947;50.810;4.394;2022-07-06T01:20:14;10.07;;;4.20;;
23539;SDS011;11947;50.810;4.394;2022-07-06T01:22:41;8.48;;;3.40;;
23539;SDS011;11947;50.810;4.394;2022-07-06T01:25:08;9.82;;;3.65;;
23539;SDS011;11947;50.810;4.394;2022-07-06T01:27:34;10.35;;;3.78;;
23539;SDS011;11947;50.810;4.394;2022-07-06T01:30:03;7.88;;;3.70;;
23539;SDS011;11947;50.810;4.394;2022-07-06T01:32:31;9.07;;;3.95;;
23539;SDS011;11947;50.810;4.394;2022-07-06T01:34:56;9.65;;;4.13;;
23539;SDS011;11947;50.810;4.394;2022-07-06T01:37:22;10.75;;;4.30;;
23539;SDS011;11947;50.810;4.394;2022-07-06T01:39:49;9.63;;;4.15;;
23539;SDS011;11947;50.810;4.394;2022-07-06T01:42:16;10.65;;;4.15;;
23539;SDS011;11947;50.810;4.394;2022-07-06T01:44:42;7.10;;;4.20;;
23539;SDS011;11947;50.810;4.394;2022-07-06T01:47:11;7.80;;;4.15;;
23539;SDS011;11947;50.810;4.394;2022-07-06T01:49:37;9.20;;;4.60;;
23539;SDS011;11947;50.810;4.394;2022-07-06T01:52:02;11.75;;;4.28;;
23539;SDS011;11947;50.810;4.394;2022-07-06T01:54:30;10.38;;;4.07;;
23539;SDS011;11947;50.810;4.394;2022-07-06T01:56:57;7.35;;;3.83;;
23539;SDS011;11947;50.810;4.394;2022-07-06T01:59:22;7.10;;;3.53;;
23539;SDS011;11947;50.810;4.394;2022-07-06T02:01:48;13.32;;;4.70;;
23539;SDS011;11947;50.810;4.394;2022-07-06T02:04:14;10.73;;;4.15;;
23539;SDS011;11947;50.810;4.394;2022-07-06T02:06:41;8.00;;;4.55;;
23539;SDS011;11947;50.810;4.394;2022-07-06T02:09:06;12.25;;;4.05;;
23539;SDS011;11947;50.810;4.394;2022-07-06T02:11:33;8.48;;;4.43;;
23539;SDS011;11947;50.810;4.394;2022-07-06T02:14:01;10.40;;;4.68;;
23539;SDS011;11947;50.810;4.394;2022-07-06T02:16:28;11.05;;;4.68;;
23539;SDS011;11947;50.810;4.394;2022-07-06T02:18:56;8.80;;;4.15;;
23539;SDS011;11947;50.810;4.394;2022-07-06T02:21:28;7.38;;;4.60;;
23539;SDS011;11947;50.810;4.394;2022-07-06T02:24:00;7.90;;;3.97;;
23539;SDS011;11947;50.810;4.394;2022-07-06T02:26:26;8.98;;;4.30;;
23539;SDS011;11947;50.810;4.394;2022-07-06T02:28:52;10.57;;;5.10;;
23539;SDS011;11947;50.810;4.394;2022-07-06T02:31:17;12.02;;;4.88;;
23539;SDS011;11947;50.810;4.394;2022-07-06T02:33:43;6.50;;;4.20;;
23539;SDS011;11947;50.810;4.394;2022-07-06T02:36:09;6.53;;;4.35;;
23539;SDS011;11947;50.810;4.394;2022-07-06T02:38:34;7.10;;;4.07;;
23539;SDS011;11947;50.810;4.394;2022-07-06T02:41:00;9.80;;;4.78;;
23539;SDS011;11947;50.810;4.394;2022-07-06T02:43:26;7.80;;;4.20;;
23539;SDS011;11947;50.810;4.394;2022-07-06T02:45:51;10.88;;;4.63;;
23539;SDS011;11947;50.810;4.394;2022-07-06T02:48:17;9.45;;;4.20;;
23539;SDS011;11947;50.810;4.394;2022-07-06T02:50:44;16.58;;;5.15;;
23539;SDS011;11947;50.810;4.394;2022-07-06T02:53:10;8.75;;;4.93;;
23539;SDS011;11947;50.810;4.394;2022-07-06T02:58:11;11.60;;;5.53;;
23539;SDS011;11947;50.810;4.394;2022-07-06T03:00:36;15.82;;;5.20;;
23539;SDS011;11947;50.810;4.394;2022-07-06T03:03:02;8.88;;;5.05;;
23539;SDS011;11947;50.810;4.394;2022-07-06T03:05:30;10.88;;;4.78;;
23539;SDS011;11947;50.810;4.394;2022-07-06T03:07:56;11.00;;;4.57;;
23539;SDS011;11947;50.810;4.394;2022-07-06T03:10:21;10.05;;;5.03;;
23539;SDS011;11947;50.810;4.394;2022-07-06T03:12:47;10.38;;;5.10;;
23539;SDS011;11947;50.810;4.394;2022-07-06T03:15:13;12.70;;;5.38;;
23539;SDS011;11947;50.810;4.394;2022-07-06T03:17:38;8.63;;;5.30;;
23539;SDS011;11947;50.810;4.394;2022-07-06T03:20:04;9.95;;;4.65;;
23539;SDS011;11947;50.810;4.394;2022-07-06T03:22:31;8.45;;;4.95;;
23539;SDS011;11947;50.810;4.394;2022-07-06T03:24:56;8.73;;;5.03;;
23539;SDS011;11947;50.810;4.394;2022-07-06T03:27:22;10.32;;;5.07;;
23539;SDS011;11947;50.810;4.394;2022-07-06T03:29:48;10.02;;;5.15;;
23539;SDS011;11947;50.810;4.394;2022-07-06T03:32:13;9.15;;;5.03;;
23539;SDS011;11947;50.810;4.394;2022-07-06T03:34:39;7.57;;;4.97;;
23539;SDS011;11947;50.810;4.394;2022-07-06T03:37:05;11.00;;;4.80;;
23539;SDS011;11947;50.810;4.394;2022-07-06T03:39:31;11.85;;;5.07;;
23539;SDS011;11947;50.810;4.394;2022-07-06T03:41:57;9.93;;;5.10;;
23539;SDS011;11947;50.810;4.394;2022-07-06T03:44:22;10.05;;;4.95;;
23539;SDS011;11947;50.810;4.394;2022-07-06T03:46:48;8.55;;;5.03;;
23539;SDS011;11947;50.810;4.394;2022-07-06T03:49:16;9.32;;;5.03;;
23539;SDS011;11947;50.810;4.394;2022-07-06T03:51:41;7.47;;;4.47;;
23539;SDS011;11947;50.810;4.394;2022-07-06T03:54:07;13.18;;;4.72;;
23539;SDS011;11947;50.810;4.394;2022-07-06T03:56:33;11.48;;;4.40;;
23539;SDS011;11947;50.810;4.394;2022-07-06T03:58:59;9.90;;;4.55;;
23539;SDS011;11947;50.810;4.394;2022-07-06T04:01:26;14.10;;;4.30;;
23539;SDS011;11947;50.810;4.394;2022-07-06T04:03:52;9.23;;;4.80;;
23539;SDS011;11947;50.810;4.394;2022-07-06T04:06:18;9.73;;;4.78;;
23539;SDS011;11947;50.810;4.394;2022-07-06T04:08:45;8.23;;;4.53;;
23539;SDS011;11947;50.810;4.394;2022-07-06T04:11:11;9.30;;;3.88;;
23539;SDS011;11947;50.810;4.394;2022-07-06T04:13:37;8.52;;;4.85;;
23539;SDS011;11947;50.810;4.394;2022-07-06T04:16:04;12.48;;;4.57;;
23539;SDS011;11947;50.810;4.394;2022-07-06T04:18:30;9.65;;;4.63;;
23539;SDS011;11947;50.810;4.394;2022-07-06T04:20:56;7.97;;;4.65;;
23539;SDS011;11947;50.810;4.394;2022-07-06T04:23:24;9.65;;;4.72;;
23539;SDS011;11947;50.810;4.394;2022-07-06T04:25:50;12.00;;;5.30;;
23539;SDS011;11947;50.810;4.394;2022-07-06T04:28:16;11.75;;;5.50;;
23539;SDS011;11947;50.810;4.394;2022-07-06T04:30:41;9.07;;;5.38;;
23539;SDS011;11947;50.810;4.394;2022-07-06T04:33:07;11.93;;;5.72;;
23539;SDS011;11947;50.810;4.394;2022-07-06T04:35:33;7.95;;;5.25;;
23539;SDS011;11947;50.810;4.394;2022-07-06T04:37:59;12.02;;;6.10;;
23539;SDS011;11947;50.810;4.394;2022-07-06T04:40:25;13.90;;;6.10;;
23539;SDS011;11947;50.810;4.394;2022-07-06T04:42:51;10.73;;;5.47;;
23539;SDS011;11947;50.810;4.394;2022-07-06T04:45:16;11.85;;;5.65;;
23539;SDS011;11947;50.810;4.394;2022-07-06T04:47:42;11.82;;;5.30;;
23539;SDS011;11947;50.810;4.394;2022-07-06T04:50:09;13.55;;;5.15;;
23539;SDS011;11947;50.810;4.394;2022-07-06T04:52:35;15.00;;;6.20;;
23539;SDS011;11947;50.810;4.394;2022-07-06T04:55:01;13.68;;;6.00;;
23539;SDS011;11947;50.810;4.394;2022-07-06T04:57:29;13.27;;;6.53;;
23539;SDS011;11947;50.810;4.394;2022-07-06T04:59:55;12.70;;;6.60;;
23539;SDS011;11947;50.810;4.394;2022-07-06T05:02:21;13.93;;;6.93;;
23539;SDS011;11947;50.810;4.394;2022-07-06T05:04:47;12.10;;;6.50;;
23539;SDS011;11947;50.810;4.394;2022-07-06T05:07:13;12.68;;;6.65;;
23539;SDS011;11947;50.810;4.394;2022-07-06T05:09:38;11.48;;;6.55;;
23539;SDS011;11947;50.810;4.394;2022-07-06T05:12:04;14.50;;;7.03;;
23539;SDS011;11947;50.810;4.394;2022-07-06T05:14:30;16.02;;;7.00;;
23539;SDS011;11947;50.810;4.394;2022-07-06T05:16:56;11.65;;;7.25;;
23539;SDS011;11947;50.810;4.394;2022-07-06T05:19:21;21.23;;;7.20;;
23539;SDS011;11947;50.810;4.394;2022-07-06T05:21:47;14.15;;;6.78;;
23539;SDS011;11947;50.810;4.394;2022-07-06T05:24:13;10.50;;;6.75;;
23539;SDS011;11947;50.810;4.394;2022-07-06T05:26:39;15.50;;;6.68;;
23539;SDS011;11947;50.810;4.394;2022-07-06T05:29:07;17.20;;;7.07;;
23539;SDS011;11947;50.810;4.394;2022-07-06T05:31:33;16.35;;;7.20;;
23539;SDS011;11947;50.810;4.394;2022-07-06T05:33:58;14.35;;;6.88;;
23539;SDS011;11947;50.810;4.394;2022-07-06T05:36:24;14.40;;;7.03;;
23539;SDS011;11947;50.810;4.394;2022-07-06T05:38:50;14.63;;;6.93;;
23539;SDS011;11947;50.810;4.394;2022-07-06T05:41:15;14.60;;;6.97;;
23539;SDS011;11947;50.810;4.394;2022-07-06T05:43:41;15.18;;;7.35;;
23539;SDS011;11947;50.810;4.394;2022-07-06T05:46:08;17.48;;;8.02;;
23539;SDS011;11947;50.810;4.394;2022-07-06T05:48:37;19.00;;;7.30;;
23539;SDS011;11947;50.810;4.394;2022-07-06T05:51:21;14.18;;;6.93;;
23539;SDS011;11947;50.810;4.394;2022-07-06T05:53:47;14.02;;;6.35;;
23539;SDS011;11947;50.810;4.394;2022-07-06T05:56:13;15.85;;;6.72;;
23539;SDS011;11947;50.810;4.394;2022-07-06T05:58:58;17.77;;;7.03;;
23539;SDS011;11947;50.810;4.394;2022-07-06T06:01:24;14.75;;;6.60;;
23539;SDS011;11947;50.810;4.394;2022-07-06T06:03:50;12.98;;;6.55;;
23539;SDS011;11947;50.810;4.394;2022-07-06T06:06:15;13.35;;;7.03;;
23539;SDS011;11947;50.810;4.394;2022-07-06T06:08:41;16.52;;;6.53;;
23539;SDS011;11947;50.810;4.394;2022-07-06T06:11:07;12.02;;;6.30;;
23539;SDS011;11947;50.810;4.394;2022-07-06T06:13:33;15.35;;;6.18;;
23539;SDS011;11947;50.810;4.394;2022-07-06T06:15:58;16.70;;;5.97;;
23539;SDS011;11947;50.810;4.394;2022-07-06T06:18:25;13.27;;;5.85;;
23539;SDS011;11947;50.810;4.394;2022-07-06T06:20:51;16.02;;;5.97;;
23539;SDS011;11947;50.810;4.394;2022-07-06T06:23:17;15.05;;;6.30;;
23539;SDS011;11947;50.810;4.394;2022-07-06T06:25:44;13.23;;;5.65;;
23539;SDS011;11947;50.810;4.394;2022-07-06T06:28:11;14.52;;;5.57;;
23539;SDS011;11947;50.810;4.394;2022-07-06T06:30:37;15.18;;;5.32;;
23539;SDS011;11947;50.810;4.394;2022-07-06T06:33:07;13.32;;;5.13;;
23539;SDS011;11947;50.810;4.394;2022-07-06T06:35:36;14.10;;;5.22;;
23539;SDS011;11947;50.810;4.394;2022-07-06T06:38:03;16.60;;;5.43;;
23539;SDS011;11947;50.810;4.394;2022-07-06T06:40:29;13.70;;;5.05;;
23539;SDS011;11947;50.810;4.394;2022-07-06T06:42:57;16.30;;;4.45;;
23539;SDS011;11947;50.810;4.394;2022-07-06T06:45:27;12.38;;;4.57;;
23539;SDS011;11947;50.810;4.394;2022-07-06T06:47:53;8.15;;;2.72;;
23539;SDS011;11947;50.810;4.394;2022-07-06T06:50:22;10.15;;;3.40;;
23539;SDS011;11947;50.810;4.394;2022-07-06T06:52:50;11.65;;;3.35;;
23539;SDS011;11947;50.810;4.394;2022-07-06T06:55:19;10.60;;;3.45;;
23539;SDS011;11947;50.810;4.394;2022-07-06T06:57:45;10.35;;;4.00;;
23539;SDS011;11947;50.810;4.394;2022-07-06T07:00:11;11.57;;;3.63;;
23539;SDS011;11947;50.810;4.394;2022-07-06T07:02:38;13.00;;;3.83;;
23539;SDS011;11947;50.810;4.394;2022-07-06T07:05:04;10.80;;;4.38;;
23539;SDS011;11947;50.810;4.394;2022-07-06T07:07:30;12.07;;;4.20;;
23539;SDS011;11947;50.810;4.394;2022-07-06T07:09:56;8.65;;;3.97;;
23539;SDS011;11947;50.810;4.394;2022-07-06T07:12:22;19.67;;;4.20;;
23539;SDS011;11947;50.810;4.394;2022-07-06T07:14:47;10.88;;;4.28;;
23539;SDS011;11947;50.810;4.394;2022-07-06T07:17:13;11.57;;;3.85;;
23539;SDS011;11947;50.810;4.394;2022-07-06T07:19:39;10.45;;;4.47;;
23539;SDS011;11947;50.810;4.394;2022-07-06T07:22:05;15.50;;;4.15;;
23539;SDS011;11947;50.810;4.394;2022-07-06T07:24:31;12.80;;;4.00;;
23539;SDS011;11947;50.810;4.394;2022-07-06T07:26:56;12.18;;;3.95;;
23539;SDS011;11947;50.810;4.394;2022-07-06T07:29:22;9.65;;;3.55;;
23539;SDS011;11947;50.810;4.394;2022-07-06T07:31:51;15.75;;;4.15;;
23539;SDS011;11947;50.810;4.394;2022-07-06T07:34:16;12.55;;;4.15;;
23539;SDS011;11947;50.810;4.394;2022-07-06T07:36:42;12.35;;;4.00;;
23539;SDS011;11947;50.810;4.394;2022-07-06T07:39:08;11.30;;;3.53;;
23539;SDS011;11947;50.810;4.394;2022-07-06T07:41:33;12.43;;;3.75;;
23539;SDS011;11947;50.810;4.394;2022-07-06T07:43:59;8.40;;;3.40;;
23539;SDS011;11947;50.810;4.394;2022-07-06T07:46:25;16.80;;;4.20;;
23539;SDS011;11947;50.810;4.394;2022-07-06T07:48:50;14.85;;;3.28;;
23539;SDS011;11947;50.810;4.394;2022-07-06T07:51:16;14.55;;;3.45;;
23539;SDS011;11947;50.810;4.394;2022-07-06T07:53:43;9.10;;;3.35;;
23539;SDS011;11947;50.810;4.394;2022-07-06T07:56:09;11.65;;;3.13;;
23539;SDS011;11947;50.810;4.394;2022-07-06T07:58:34;12.77;;;3.80;;
23539;SDS011;11947;50.810;4.394;2022-07-06T08:01:00;8.90;;;3.53;;
23539;SDS011;11947;50.810;4.394;2022-07-06T08:03:26;13.27;;;3.85;;
23539;SDS011;11947;50.810;4.394;2022-07-06T08:05:52;12.68;;;3.42;;
23539;SDS011;11947;50.810;4.394;2022-07-06T08:08:18;12.95;;;3.13;;
23539;SDS011;11947;50.810;4.394;2022-07-06T08:10:44;11.48;;;4.03;;
23539;SDS011;11947;50.810;4.394;2022-07-06T08:13:09;10.13;;;3.65;;
23539;SDS011;11947;50.810;4.394;2022-07-06T08:15:36;9.88;;;3.42;;
23539;SDS011;11947;50.810;4.394;2022-07-06T08:18:02;10.15;;;3.42;;
23539;SDS011;11947;50.810;4.394;2022-07-06T08:20:28;9.63;;;3.45;;
23539;SDS011;11947;50.810;4.394;2022-07-06T08:22:54;7.72;;;3.20;;
23539;SDS011;11947;50.810;4.394;2022-07-06T08:25:20;9.57;;;3.20;;
23539;SDS011;11947;50.810;4.394;2022-07-06T08:27:46;11.90;;;3.70;;
23539;SDS011;11947;50.810;4.394;2022-07-06T08:30:11;9.35;;;3.15;;
23539;SDS011;11947;50.810;4.394;2022-07-06T08:32:38;9.57;;;4.05;;
23539;SDS011;11947;50.810;4.394;2022-07-06T08:35:08;9.20;;;3.90;;
23539;SDS011;11947;50.810;4.394;2022-07-06T08:37:34;15.23;;;4.00;;
23539;SDS011;11947;50.810;4.394;2022-07-06T08:40:00;7.38;;;3.42;;
23539;SDS011;11947;50.810;4.394;2022-07-06T08:42:27;9.73;;;3.83;;
23539;SDS011;11947;50.810;4.394;2022-07-06T08:45:00;13.00;;;4.45;;
23539;SDS011;11947;50.810;4.394;2022-07-06T08:47:28;14.73;;;4.70;;
23539;SDS011;11947;50.810;4.394;2022-07-06T08:49:57;13.27;;;4.68;;
23539;SDS011;11947;50.810;4.394;2022-07-06T08:52:23;11.40;;;4.40;;
23539;SDS011;11947;50.810;4.394;2022-07-06T08:54:50;14.32;;;4.10;;
23539;SDS011;11947;50.810;4.394;2022-07-06T08:57:16;12.35;;;4.45;;
23539;SDS011;11947;50.810;4.394;2022-07-06T08:59:42;10.73;;;3.97;;
23539;SDS011;11947;50.810;4.394;2022-07-06T09:02:09;10.32;;;3.90;;
23539;SDS011;11947;50.810;4.394;2022-07-06T09:04:36;13.05;;;4.38;;
23539;SDS011;11947;50.810;4.394;2022-07-06T09:07:06;8.55;;;4.05;;
23539;SDS011;11947;50.810;4.394;2022-07-06T09:09:31;10.60;;;4.40;;
23539;SDS011;11947;50.810;4.394;2022-07-06T09:11:58;7.85;;;3.80;;
23539;SDS011;11947;50.810;4.394;2022-07-06T09:14:25;9.93;;;3.85;;
23539;SDS011;11947;50.810;4.394;2022-07-06T09:16:52;9.70;;;3.88;;
23539;SDS011;11947;50.810;4.394;2022-07-06T09:19:27;10.13;;;3.95;;
23539;SDS011;11947;50.810;4.394;2022-07-06T09:21:53;7.00;;;3.55;;
23539;SDS011;11947;50.810;4.394;2022-07-06T09:24:19;6.47;;;3.50;;
23539;SDS011;11947;50.810;4.394;2022-07-06T09:26:45;7.57;;;2.97;;
23539;SDS011;11947;50.810;4.394;2022-07-06T09:29:13;7.38;;;3.10;;
23539;SDS011;11947;50.810;4.394;2022-07-06T09:31:39;11.23;;;3.45;;
23539;SDS011;11947;50.810;4.394;2022-07-06T09:34:06;10.23;;;3.38;;
23539;SDS011;11947;50.810;4.394;2022-07-06T09:36:45;10.48;;;3.70;;
23539;SDS011;11947;50.810;4.394;2022-07-06T09:39:25;12.20;;;4.13;;
23539;SDS011;11947;50.810;4.394;2022-07-06T09:41:53;7.70;;;3.55;;
23539;SDS011;11947;50.810;4.394;2022-07-06T09:44:20;7.65;;;3.70;;
23539;SDS011;11947;50.810;4.394;2022-07-06T09:46:47;13.05;;;4.25;;
23539;SDS011;11947;50.810;4.394;2022-07-06T09:49:16;7.35;;;3.50;;
23539;SDS011;11947;50.810;4.394;2022-07-06T09:51:46;52.70;;;5.00;;
23539;SDS011;11947;50.810;4.394;2022-07-06T09:54:12;8.15;;;3.70;;
23539;SDS011;11947;50.810;4.394;2022-07-06T09:56:39;15.60;;;3.38;;
23539;SDS011;11947;50.810;4.394;2022-07-06T09:59:09;15.30;;;4.38;;
23539;SDS011;11947;50.810;4.394;2022-07-06T11:24:07;6.75;;;3.42;;
23539;SDS011;11947;50.810;4.394;2022-07-06T11:26:53;6.40;;;2.88;;
23539;SDS011;11947;50.810;4.394;2022-07-06T11:29:21;8.43;;;2.90;;
23539;SDS011;11947;50.810;4.394;2022-07-06T11:31:49;8.27;;;3.13;;
23539;SDS011;11947;50.810;4.394;2022-07-06T11:34:19;9.82;;;2.97;;
23539;SDS011;11947;50.810;4.394;2022-07-06T11:36:49;10.88;;;3.15;;
23539;SDS011;11947;50.810;4.394;2022-07-06T11:39:20;7.53;;;2.97;;
23539;SDS011;11947;50.810;4.394;2022-07-06T11:41:45;8.57;;;2.85;;
23539;SDS011;11947;50.810;4.394;2022-07-06T11:44:11;9.73;;;2.80;;
23539;SDS011;11947;50.810;4.394;2022-07-06T11:46:36;7.80;;;2.97;;
23539;SDS011;11947;50.810;4.394;2022-07-06T11:49:03;9.25;;;2.67;;
23539;SDS011;11947;50.810;4.394;2022-07-06T11:51:31;6.32;;;2.70;;
23539;SDS011;11947;50.810;4.394;2022-07-06T11:53:59;5.25;;;2.50;;
23539;SDS011;11947;50.810;4.394;2022-07-06T11:56:26;8.27;;;2.90;;
23539;SDS011;11947;50.810;4.394;2022-07-06T11:58:54;5.72;;;2.72;;
23539;SDS011;11947;50.810;4.394;2022-07-06T12:01:24;7.50;;;2.72;;
23539;SDS011;11947;50.810;4.394;2022-07-06T12:03:52;8.48;;;3.10;;
23539;SDS011;11947;50.810;4.394;2022-07-06T12:06:20;8.43;;;2.92;;
23539;SDS011;11947;50.810;4.394;2022-07-06T12:08:54;9.70;;;3.00;;
23539;SDS011;11947;50.810;4.394;2022-07-06T12:11:26;11.45;;;2.95;;
23539;SDS011;11947;50.810;4.394;2022-07-06T12:13:54;7.55;;;2.85;;
23539;SDS011;11947;50.810;4.394;2022-07-06T12:16:32;5.95;;;2.95;;
23539;SDS011;11947;50.810;4.394;2022-07-06T12:18:59;11.18;;;3.20;;
23539;SDS011;11947;50.810;4.394;2022-07-06T12:21:26;6.30;;;2.67;;
23539;SDS011;11947;50.810;4.394;2022-07-06T12:23:52;6.65;;;3.00;;
23539;SDS011;11947;50.810;4.394;2022-07-06T12:26:19;6.15;;;2.70;;
23539;SDS011;11947;50.810;4.394;2022-07-06T12:29:07;9.30;;;3.40;;
23539;SDS011;11947;50.810;4.394;2022-07-06T12:34:27;6.80;;;3.03;;
23539;SDS011;11947;50.810;4.394;2022-07-06T12:36:58;5.47;;;3.30;;
23539;SDS011;11947;50.810;4.394;2022-07-06T12:39:30;5.05;;;3.00;;
23539;SDS011;11947;50.810;4.394;2022-07-06T12:41:56;5.18;;;2.80;;
23539;SDS011;11947;50.810;4.394;2022-07-06T12:44:28;4.80;;;2.72;;
23539;SDS011;11947;50.810;4.394;2022-07-06T12:47:04;5.65;;;2.80;;
23539;SDS011;11947;50.810;4.394;2022-07-06T12:49:31;6.68;;;2.60;;
23539;SDS011;11947;50.810;4.394;2022-07-06T12:52:02;6.20;;;3.00;;
23539;SDS011;11947;50.810;4.394;2022-07-06T12:54:44;7.68;;;3.20;;
23539;SDS011;11947;50.810;4.394;2022-07-06T12:57:12;8.68;;;3.05;;
23539;SDS011;11947;50.810;4.394;2022-07-06T13:04:56;9.73;;;2.97;;
23539;SDS011;11947;50.810;4.394;2022-07-06T13:07:21;6.50;;;2.85;;
23539;SDS011;11947;50.810;4.394;2022-07-06T13:09:48;7.22;;;2.78;;
23539;SDS011;11947;50.810;4.394;2022-07-06T13:12:13;7.72;;;2.65;;
23539;SDS011;11947;50.810;4.394;2022-07-06T13:14:39;5.88;;;2.97;;
23539;SDS011;11947;50.810;4.394;2022-07-06T13:17:04;5.85;;;3.05;;
23539;SDS011;11947;50.810;4.394;2022-07-06T13:19:30;7.85;;;2.72;;
23539;SDS011;11947;50.810;4.394;2022-07-06T13:21:56;7.00;;;3.05;;
23539;SDS011;11947;50.810;4.394;2022-07-06T13:24:23;4.72;;;2.42;;
23539;SDS011;11947;50.810;4.394;2022-07-06T13:26:49;5.75;;;2.67;;
23539;SDS011;11947;50.810;4.394;2022-07-06T13:29:14;5.50;;;2.78;;
23539;SDS011;11947;50.810;4.394;2022-07-06T13:31:40;7.00;;;2.92;;
23539;SDS011;11947;50.810;4.394;2022-07-06T13:34:06;7.38;;;2.95;;
23539;SDS011;11947;50.810;4.394;2022-07-06T13:36:33;5.25;;;2.85;;
23539;SDS011;11947;50.810;4.394;2022-07-06T13:38:59;7.47;;;2.78;;
23539;SDS011;11947;50.810;4.394;2022-07-06T13:41:25;6.25;;;3.20;;
23539;SDS011;11947;50.810;4.394;2022-07-06T13:43:50;8.68;;;3.60;;
23539;SDS011;11947;50.810;4.394;2022-07-06T13:46:16;5.03;;;2.97;;
23539;SDS011;11947;50.810;4.394;2022-07-06T13:48:43;10.27;;;3.08;;
23539;SDS011;11947;50.810;4.394;2022-07-06T13:51:08;5.13;;;2.92;;
23539;SDS011;11947;50.810;4.394;2022-07-06T13:53:34;7.22;;;3.17;;
23539;SDS011;11947;50.810;4.394;2022-07-06T13:56:00;7.50;;;3.00;;
23539;SDS011;11947;50.810;4.394;2022-07-06T13:58:26;4.78;;;2.60;;
23539;SDS011;11947;50.810;4.394;2022-07-06T14:00:51;8.45;;;3.33;;
23539;SDS011;11947;50.810;4.394;2022-07-06T14:03:17;5.30;;;2.90;;
23539;SDS011;11947;50.810;4.394;2022-07-06T14:05:42;7.13;;;2.70;;
23539;SDS011;11947;50.810;4.394;2022-07-06T14:08:08;3.53;;;2.38;;
23539;SDS011;11947;50.810;4.394;2022-07-06T14:10:34;7.22;;;3.13;;
23539;SDS011;11947;50.810;4.394;2022-07-06T14:12:59;5.68;;;2.70;;
23539;SDS011;11947;50.810;4.394;2022-07-06T14:15:25;5.55;;;3.05;;
23539;SDS011;11947;50.810;4.394;2022-07-06T14:17:51;9.48;;;2.70;;
23539;SDS011;11947;50.810;4.394;2022-07-06T14:20:16;6.95;;;2.40;;
23539;SDS011;11947;50.810;4.394;2022-07-06T14:22:43;6.72;;;3.25;;
23539;SDS011;11947;50.810;4.394;2022-07-06T14:25:09;7.38;;;2.60;;
23539;SDS011;11947;50.810;4.394;2022-07-06T14:27:35;7.60;;;3.38;;
23539;SDS011;11947;50.810;4.394;2022-07-06T14:30:01;8.68;;;3.03;;
23539;SDS011;11947;50.810;4.394;2022-07-06T14:32:27;6.28;;;2.55;;
23539;SDS011;11947;50.810;4.394;2022-07-06T14:34:53;8.45;;;2.58;;
23539;SDS011;11947;50.810;4.394;2022-07-06T14:37:18;7.57;;;2.40;;
23539;SDS011;11947;50.810;4.394;2022-07-06T14:39:44;7.45;;;2.90;;
23539;SDS011;11947;50.810;4.394;2022-07-06T14:42:13;8.82;;;2.58;;
23539;SDS011;11947;50.810;4.394;2022-07-06T14:44:39;4.07;;;2.40;;
23539;SDS011;11947;50.810;4.394;2022-07-06T14:47:05;6.18;;;2.50;;
23539;SDS011;11947;50.810;4.394;2022-07-06T14:49:31;7.47;;;2.97;;
23539;SDS011;11947;50.810;4.394;2022-07-06T14:51:57;7.40;;;2.40;;
23539;SDS011;11947;50.810;4.394;2022-07-06T14:54:23;6.68;;;2.50;;
23539;SDS011;11947;50.810;4.394;2022-07-06T14:56:49;6.63;;;2.22;;
23539;SDS011;11947;50.810;4.394;2022-07-06T14:59:15;6.40;;;2.42;;
23539;SDS011;11947;50.810;4.394;2022-07-06T15:01:40;7.80;;;2.75;;
23539;SDS011;11947;50.810;4.394;2022-07-06T15:04:06;6.82;;;2.45;;
23539;SDS011;11947;50.810;4.394;2022-07-06T15:06:32;5.45;;;2.63;;
23539;SDS011;11947;50.810;4.394;2022-07-06T15:08:58;8.55;;;2.70;;
23539;SDS011;11947;50.810;4.394;2022-07-06T15:11:26;10.35;;;2.80;;
23539;SDS011;11947;50.810;4.394;2022-07-06T15:13:51;6.15;;;2.55;;
23539;SDS011;11947;50.810;4.394;2022-07-06T15:16:17;9.32;;;3.08;;
23539;SDS011;11947;50.810;4.394;2022-07-06T15:18:43;7.93;;;2.60;;
23539;SDS011;11947;50.810;4.394;2022-07-06T15:21:08;8.68;;;2.50;;
23539;SDS011;11947;50.810;4.394;2022-07-06T15:23:34;6.72;;;2.38;;
23539;SDS011;11947;50.810;4.394;2022-07-06T15:26:02;6.25;;;2.45;;
23539;SDS011;11947;50.810;4.394;2022-07-06T15:28:28;6.53;;;2.20;;
23539;SDS011;11947;50.810;4.394;2022-07-06T15:30:54;6.07;;;2.35;;
23539;SDS011;11947;50.810;4.394;2022-07-06T15:33:20;5.50;;;2.80;;
23539;SDS011;11947;50.810;4.394;2022-07-06T15:35:47;9.68;;;2.30;;
23539;SDS011;11947;50.810;4.394;2022-07-06T15:38:12;9.68;;;2.67;;
23539;SDS011;11947;50.810;4.394;2022-07-06T15:40:38;6.18;;;2.80;;
23539;SDS011;11947;50.810;4.394;2022-07-06T15:43:31;5.43;;;2.78;;
23539;SDS011;11947;50.810;4.394;2022-07-06T15:45:58;8.27;;;2.75;;
23539;SDS011;11947;50.810;4.394;2022-07-06T15:48:26;6.55;;;2.85;;
23539;SDS011;11947;50.810;4.394;2022-07-06T15:50:52;8.35;;;2.80;;
23539;SDS011;11947;50.810;4.394;2022-07-06T15:53:19;5.60;;;2.58;;
23539;SDS011;11947;50.810;4.394;2022-07-06T15:55:44;5.03;;;2.47;;
23539;SDS011;11947;50.810;4.394;2022-07-06T15:58:11;11.10;;;2.97;;
23539;SDS011;11947;50.810;4.394;2022-07-06T16:00:36;5.13;;;2.40;;
23539;SDS011;11947;50.810;4.394;2022-07-06T16:03:03;8.73;;;3.38;;
23539;SDS011;11947;50.810;4.394;2022-07-06T16:05:29;6.38;;;2.80;;
23539;SDS011;11947;50.810;4.394;2022-07-06T16:07:54;7.00;;;2.90;;
23539;SDS011;11947;50.810;4.394;2022-07-06T16:10:20;6.72;;;2.72;;
23539;SDS011;11947;50.810;4.394;2022-07-06T16:12:46;4.65;;;2.78;;
23539;SDS011;11947;50.810;4.394;2022-07-06T16:15:11;9.43;;;2.88;;
23539;SDS011;11947;50.810;4.394;2022-07-06T16:17:37;9.02;;;3.38;;